createdAt,value
2023-04-26T00:00:46.055Z,534.00
2023-04-26T00:01:46.098Z,533.00
2023-04-26T00:02:46.261Z,533.00
2023-04-26T00:03:46.368Z,532.00
2023-04-26T00:04:46.560Z,533.00
2023-04-26T00:05:46.364Z,534.00
2023-04-26T00:06:46.387Z,534.00
2023-04-26T00:07:46.440Z,531.00
2023-04-26T00:08:46.548Z,532.00
2023-04-26T00:09:46.613Z,535.00
2023-04-26T00:10:46.591Z,536.00
2023-04-26T00:11:46.738Z,536.00
2023-04-26T00:12:46.715Z,538.00
2023-04-26T00:13:46.796Z,538.00
2023-04-26T00:14:46.862Z,538.00
2023-04-26T00:15:46.934Z,539.00
2023-04-26T00:16:47.066Z,537.00
2023-04-26T00:17:47.065Z,538.00
2023-04-26T00:18:47.110Z,537.00
2023-04-26T00:19:47.197Z,536.00
2023-04-26T00:20:47.178Z,536.00
2023-04-26T00:21:47.248Z,536.00
2023-04-26T00:22:47.317Z,535.00
2023-04-26T00:23:47.756Z,533.00
2023-04-26T00:24:47.455Z,532.00
2023-04-26T00:25:47.503Z,533.00
2023-04-26T00:26:47.574Z,534.00
2023-04-26T00:27:47.621Z,536.00
2023-04-26T00:28:47.701Z,536.00
2023-04-26T00:29:47.766Z,537.00
2023-04-26T00:30:47.802Z,536.00
2023-04-26T00:31:47.958Z,537.00
2023-04-26T00:32:47.917Z,537.00
2023-04-26T00:33:47.953Z,534.00
2023-04-26T00:34:47.993Z,532.00
2023-04-26T00:35:48.051Z,533.00
2023-04-26T00:36:48.133Z,533.00
2023-04-26T00:37:48.774Z,534.00
2023-04-26T00:38:48.231Z,536.00
2023-04-26T00:39:48.300Z,538.00
2023-04-26T00:40:48.326Z,537.00
2023-04-26T00:41:48.377Z,537.00
2023-04-26T00:42:48.518Z,535.00
2023-04-26T00:43:48.536Z,536.00
2023-04-26T00:44:48.576Z,538.00
2023-04-26T00:45:48.635Z,537.00
2023-04-26T00:46:48.684Z,538.00
2023-04-26T00:47:48.724Z,537.00
2023-04-26T00:48:48.766Z,537.00
2023-04-26T00:49:48.796Z,538.00
2023-04-26T00:50:48.868Z,538.00
2023-04-26T00:51:48.895Z,538.00
2023-04-26T00:52:48.947Z,538.00
2023-04-26T00:53:49.029Z,535.00
2023-04-26T00:54:49.106Z,537.00
2023-04-26T00:55:49.197Z,541.00
2023-04-26T00:56:49.177Z,540.00
2023-04-26T00:57:49.266Z,540.00
2023-04-26T00:58:49.646Z,540.00
2023-04-26T00:59:49.394Z,543.00
2023-04-26T01:00:49.459Z,543.00
2023-04-26T01:01:49.539Z,544.00
2023-04-26T01:02:49.628Z,544.00
2023-04-26T01:03:49.786Z,542.00
2023-04-26T01:04:49.636Z,540.00
2023-04-26T01:05:49.644Z,537.00
2023-04-26T01:06:49.682Z,539.00
2023-04-26T01:07:49.677Z,539.00
2023-04-26T01:08:49.962Z,538.00
2023-04-26T01:09:49.736Z,537.00
2023-04-26T01:10:49.791Z,538.00
2023-04-26T01:11:49.826Z,537.00
2023-04-26T01:12:49.994Z,536.00
2023-04-26T01:13:49.927Z,537.00
2023-04-26T01:14:49.987Z,537.00
2023-04-26T01:15:50.029Z,538.00
2023-04-26T01:16:50.106Z,541.00
2023-04-26T01:17:50.178Z,540.00
2023-04-26T01:18:50.427Z,541.00
2023-04-26T01:19:50.279Z,543.00
2023-04-26T01:20:50.337Z,543.00
2023-04-26T01:21:50.416Z,543.00
2023-04-26T01:22:50.452Z,540.00
2023-04-26T01:23:50.515Z,538.00
2023-04-26T01:24:50.634Z,536.00
2023-04-26T01:25:50.625Z,539.00
2023-04-26T01:26:50.674Z,538.00
2023-04-26T01:27:50.787Z,538.00
2023-04-26T01:28:51.102Z,539.00
2023-04-26T01:29:50.881Z,536.00
2023-04-26T01:30:50.933Z,539.00
2023-04-26T01:31:50.974Z,541.00
2023-04-26T01:32:51.062Z,541.00
2023-04-26T01:33:51.090Z,538.00
2023-04-26T01:34:51.159Z,537.00
2023-04-26T01:35:51.193Z,538.00
2023-04-26T01:36:51.251Z,541.00
2023-04-26T01:37:51.323Z,538.00
2023-04-26T01:38:51.641Z,540.00
2023-04-26T01:39:51.446Z,540.00
2023-04-26T01:40:51.492Z,539.00
2023-04-26T01:41:51.544Z,538.00
2023-04-26T01:42:51.632Z,537.00
2023-04-26T01:43:51.785Z,539.00
2023-04-26T01:44:51.790Z,539.00
2023-04-26T01:45:51.843Z,540.00
2023-04-26T01:46:51.889Z,542.00
2023-04-26T01:47:51.932Z,540.00
2023-04-26T01:48:52.067Z,542.00
2023-04-26T01:49:52.019Z,542.00
2023-04-26T01:50:52.040Z,543.00
2023-04-26T01:51:52.107Z,541.00
2023-04-26T01:52:52.143Z,539.00
2023-04-26T01:53:52.346Z,537.00
2023-04-26T01:54:52.266Z,537.00
2023-04-26T01:55:52.305Z,535.00
2023-04-26T01:56:52.402Z,535.00
2023-04-26T01:57:52.416Z,535.00
2023-04-26T01:58:52.775Z,536.00
2023-04-26T01:59:52.553Z,534.00
2023-04-26T02:00:52.626Z,536.00
2023-04-26T02:01:52.724Z,538.00
2023-04-26T02:02:52.817Z,538.00
2023-04-26T02:03:52.825Z,538.00
2023-04-26T02:04:52.944Z,540.00
2023-04-26T02:05:52.911Z,539.00
2023-04-26T02:06:52.969Z,539.00
2023-04-26T02:07:53.019Z,541.00
2023-04-26T02:08:53.587Z,541.00
2023-04-26T02:09:53.124Z,539.00
2023-04-26T02:10:53.209Z,538.00
2023-04-26T02:11:53.289Z,537.00
2023-04-26T02:12:53.324Z,536.00
2023-04-26T02:13:53.395Z,537.00
2023-04-26T02:14:53.453Z,535.00
2023-04-26T02:15:53.539Z,537.00
2023-04-26T02:16:53.597Z,535.00
2023-04-26T02:17:53.711Z,532.00
2023-04-26T02:18:54.032Z,533.00
2023-04-26T02:19:53.726Z,535.00
2023-04-26T02:20:53.913Z,535.00
2023-04-26T02:21:53.839Z,536.00
2023-04-26T02:22:53.906Z,537.00
2023-04-26T02:23:53.927Z,535.00
2023-04-26T02:24:53.916Z,534.00
2023-04-26T02:25:53.973Z,535.00
2023-04-26T02:26:54.010Z,531.00
2023-04-26T02:27:54.050Z,531.00
2023-04-26T02:28:54.302Z,531.00
2023-04-26T02:29:54.157Z,533.00
2023-04-26T02:30:54.140Z,533.00
2023-04-26T02:31:54.268Z,534.00
2023-04-26T02:32:54.268Z,536.00
2023-04-26T02:33:54.286Z,536.00
2023-04-26T02:34:54.367Z,536.00
2023-04-26T02:35:54.329Z,536.00
2023-04-26T02:36:54.359Z,538.00
2023-04-26T02:37:54.492Z,540.00
2023-04-26T02:38:54.606Z,539.00
2023-04-26T02:39:54.480Z,540.00
2023-04-26T02:40:54.480Z,540.00
2023-04-26T02:41:54.540Z,538.00
2023-04-26T02:42:54.588Z,537.00
2023-04-26T02:43:54.654Z,537.00
2023-04-26T02:44:54.775Z,537.00
2023-04-26T02:45:54.787Z,535.00
2023-04-26T02:46:54.856Z,536.00
2023-04-26T02:47:54.923Z,535.00
2023-04-26T02:48:55.094Z,536.00
2023-04-26T02:50:04.312Z,537.00
2023-04-26T02:50:54.997Z,537.00
2023-04-26T02:51:54.995Z,533.00
2023-04-26T02:52:54.986Z,532.00
2023-04-26T02:53:54.999Z,532.00
2023-04-26T02:54:55.002Z,532.00
2023-04-26T02:55:54.976Z,530.00
2023-04-26T02:56:54.963Z,529.00
2023-04-26T02:57:54.947Z,529.00
2023-04-26T02:58:54.939Z,531.00
2023-04-26T02:59:54.967Z,530.00
2023-04-26T03:00:54.996Z,531.00
2023-04-26T03:01:54.972Z,530.00
2023-04-26T03:02:55.062Z,530.00
2023-04-26T03:03:55.040Z,528.00
2023-04-26T03:04:54.939Z,528.00
2023-04-26T03:05:54.905Z,529.00
2023-04-26T03:06:54.900Z,530.00
2023-04-26T03:07:54.873Z,528.00
2023-04-26T03:08:55.249Z,528.00
2023-04-26T03:09:54.876Z,527.00
2023-04-26T03:10:54.875Z,530.00
2023-04-26T03:11:54.868Z,531.00
2023-04-26T03:12:54.855Z,532.00
2023-04-26T03:13:54.855Z,533.00
2023-04-26T03:14:54.827Z,534.00
2023-04-26T03:15:54.828Z,532.00
2023-04-26T03:16:54.928Z,530.00
2023-04-26T03:17:54.914Z,530.00
2023-04-26T03:18:55.152Z,531.00
2023-04-26T03:19:54.816Z,532.00
2023-04-26T03:20:54.796Z,529.00
2023-04-26T03:21:54.791Z,529.00
2023-04-26T03:22:54.795Z,531.00
2023-04-26T03:23:54.788Z,531.00
2023-04-26T03:24:54.800Z,530.00
2023-04-26T03:25:54.847Z,530.00
2023-04-26T03:26:54.914Z,528.00
2023-04-26T03:27:54.977Z,527.00
2023-04-26T03:28:55.114Z,532.00
2023-04-26T03:29:55.082Z,533.00
2023-04-26T03:30:55.155Z,534.00
2023-04-26T03:31:55.222Z,535.00
2023-04-26T03:32:55.246Z,536.00
2023-04-26T03:33:55.283Z,533.00
2023-04-26T03:34:55.400Z,532.00
2023-04-26T03:35:55.380Z,529.00
2023-04-26T03:36:55.438Z,529.00
2023-04-26T03:37:58.519Z,525.00
2023-04-26T03:38:55.497Z,523.00
2023-04-26T03:39:55.508Z,523.00
2023-04-26T03:40:55.487Z,528.00
2023-04-26T03:41:55.465Z,531.00
2023-04-26T03:42:55.460Z,529.00
2023-04-26T03:43:55.465Z,532.00
2023-04-26T03:44:55.464Z,532.00
2023-04-26T03:45:55.465Z,530.00
2023-04-26T03:46:55.429Z,530.00
2023-04-26T03:47:55.517Z,530.00
2023-04-26T03:48:55.447Z,533.00
2023-04-26T03:49:55.443Z,535.00
2023-04-26T03:50:55.433Z,533.00
2023-04-26T03:51:55.428Z,533.00
2023-04-26T03:52:55.437Z,533.00
2023-04-26T03:53:55.399Z,533.00
2023-04-26T03:54:55.398Z,535.00
2023-04-26T03:55:55.418Z,533.00
2023-04-26T03:56:55.396Z,534.00
2023-04-26T03:57:55.369Z,536.00
2023-04-26T03:58:55.371Z,534.00
2023-04-26T03:59:55.380Z,537.00
2023-04-26T04:00:55.347Z,539.00
2023-04-26T04:01:55.340Z,538.00
2023-04-26T04:02:55.437Z,538.00
2023-04-26T04:03:55.647Z,534.00
2023-04-26T04:04:55.439Z,533.00
2023-04-26T04:05:55.301Z,535.00
2023-04-26T04:06:55.316Z,534.00
2023-04-26T04:07:55.302Z,532.00
2023-04-26T04:08:55.463Z,531.00
2023-04-26T04:09:55.321Z,532.00
2023-04-26T04:10:55.325Z,533.00
2023-04-26T04:11:55.275Z,532.00
2023-04-26T04:12:55.282Z,533.00
2023-04-26T04:13:55.311Z,533.00
2023-04-26T04:14:55.363Z,533.00
2023-04-26T04:15:55.426Z,534.00
2023-04-26T04:16:55.447Z,535.00
2023-04-26T04:17:55.550Z,535.00
2023-04-26T04:18:55.555Z,537.00
2023-04-26T04:19:55.602Z,532.00
2023-04-26T04:20:55.670Z,529.00
2023-04-26T04:21:55.719Z,526.00
2023-04-26T04:22:55.778Z,526.00
2023-04-26T04:23:55.790Z,531.00
2023-04-26T04:24:55.860Z,529.00
2023-04-26T04:25:55.906Z,531.00
2023-04-26T04:26:55.924Z,532.00
2023-04-26T04:27:55.973Z,533.00
2023-04-26T04:28:56.027Z,531.00
2023-04-26T04:29:56.095Z,531.00
2023-04-26T04:30:56.252Z,530.00
2023-04-26T04:31:56.209Z,533.00
2023-04-26T04:32:56.280Z,532.00
2023-04-26T04:33:56.298Z,530.00
2023-04-26T04:34:56.416Z,529.00
2023-04-26T04:35:56.346Z,527.00
2023-04-26T04:36:56.353Z,529.00
2023-04-26T04:37:56.381Z,527.00
2023-04-26T04:38:56.389Z,528.00
2023-04-26T04:39:56.416Z,527.00
2023-04-26T04:40:56.549Z,530.00
2023-04-26T04:41:56.425Z,531.00
2023-04-26T04:42:56.465Z,529.00
2023-04-26T04:43:56.465Z,530.00
2023-04-26T04:44:56.909Z,532.00
2023-04-26T04:45:56.470Z,534.00
2023-04-26T04:46:56.518Z,534.00
2023-04-26T04:47:56.490Z,533.00
2023-04-26T04:48:56.459Z,531.00
2023-04-26T04:49:56.497Z,530.00
2023-04-26T04:50:56.515Z,532.00
2023-04-26T04:51:56.483Z,531.00
2023-04-26T04:52:56.503Z,532.00
2023-04-26T04:53:56.514Z,530.00
2023-04-26T04:54:56.538Z,527.00
2023-04-26T04:55:56.533Z,527.00
2023-04-26T04:56:56.547Z,528.00
2023-04-26T04:57:56.549Z,528.00
2023-04-26T04:58:56.543Z,530.00
2023-04-26T04:59:56.586Z,528.00
2023-04-26T05:00:56.591Z,526.00
2023-04-26T05:01:56.673Z,523.00
2023-04-26T05:02:56.819Z,521.00
2023-04-26T05:03:57.122Z,518.00
2023-04-26T05:04:56.818Z,514.00
2023-04-26T05:05:56.788Z,512.00
2023-04-26T05:06:56.817Z,513.00
2023-04-26T05:07:56.872Z,514.00
2023-04-26T05:08:56.915Z,516.00
2023-04-26T05:09:57.387Z,510.00
2023-04-26T05:10:57.048Z,509.00
2023-04-26T05:11:57.119Z,507.00
2023-04-26T05:12:57.174Z,507.00
2023-04-26T05:13:57.318Z,504.00
2023-04-26T05:14:57.266Z,506.00
2023-04-26T05:15:57.334Z,505.00
2023-04-26T05:16:57.431Z,503.00
2023-04-26T05:17:57.485Z,504.00
2023-04-26T05:18:57.506Z,506.00
2023-04-26T05:19:57.576Z,508.00
2023-04-26T05:20:57.648Z,509.00
2023-04-26T05:21:57.654Z,510.00
2023-04-26T05:22:57.718Z,510.00
2023-04-26T05:23:57.760Z,510.00
2023-04-26T05:24:57.840Z,509.00
2023-04-26T05:25:57.898Z,510.00
2023-04-26T05:26:57.906Z,538.00
2023-04-26T05:27:58.022Z,554.00
2023-04-26T05:28:58.045Z,551.00
2023-04-26T05:29:58.100Z,549.00
2023-04-26T05:30:58.141Z,549.00
2023-04-26T05:31:58.319Z,550.00
2023-04-26T05:32:58.312Z,755.00
2023-04-26T05:33:58.325Z,1028.00
2023-04-26T05:34:58.459Z,949.00
2023-04-26T05:35:58.428Z,941.00
2023-04-26T05:36:58.504Z,940.00
2023-04-26T05:37:58.582Z,936.00
2023-04-26T05:38:58.606Z,949.00
2023-04-26T05:39:58.702Z,959.00
2023-04-26T05:40:58.723Z,867.00
2023-04-26T05:41:58.776Z,869.00
2023-04-26T05:42:58.816Z,872.00
2023-04-26T05:43:58.964Z,872.00
2023-04-26T05:44:58.973Z,954.00
2023-04-26T05:45:59.042Z,957.00
2023-04-26T05:46:59.090Z,955.00
2023-04-26T05:47:59.172Z,946.00
2023-04-26T05:48:59.174Z,866.00
2023-04-26T05:50:00.935Z,833.00
2023-04-26T05:50:59.370Z,821.00
2023-04-26T05:51:59.308Z,806.00
2023-04-26T05:52:59.339Z,794.00
2023-04-26T05:53:59.381Z,787.00
2023-04-26T05:54:59.484Z,781.00
2023-04-26T05:55:59.480Z,782.00
2023-04-26T05:56:59.556Z,780.00
2023-04-26T05:57:59.610Z,771.00
2023-04-26T05:58:59.741Z,764.00
2023-04-26T05:59:59.742Z,759.00
2023-04-26T06:00:59.762Z,757.00
2023-04-26T06:01:59.817Z,755.00
2023-04-26T06:02:59.918Z,753.00
2023-04-26T06:04:01.086Z,743.00
2023-04-26T06:05:00.266Z,737.00
2023-04-26T06:06:00.132Z,730.00
2023-04-26T06:07:00.149Z,728.00
2023-04-26T06:08:00.121Z,723.00
2023-04-26T06:09:00.164Z,724.00
2023-04-26T06:10:00.260Z,725.00
2023-04-26T06:11:00.269Z,723.00
2023-04-26T06:12:02.070Z,721.00
2023-04-26T06:13:00.380Z,717.00
2023-04-26T06:14:00.567Z,715.00
2023-04-26T06:15:00.528Z,716.00
2023-04-26T06:16:00.669Z,716.00
2023-04-26T06:17:00.673Z,717.00
2023-04-26T06:18:00.751Z,720.00
2023-04-26T06:19:00.720Z,721.00
2023-04-26T06:20:00.802Z,723.00
2023-04-26T06:21:00.856Z,729.00
2023-04-26T06:22:00.928Z,733.00
2023-04-26T06:23:00.956Z,735.00
2023-04-26T06:24:00.952Z,734.00
2023-04-26T06:25:01.195Z,735.00
2023-04-26T06:26:01.106Z,738.00
2023-04-26T06:27:01.169Z,741.00
2023-04-26T06:28:01.254Z,743.00
2023-04-26T06:29:01.250Z,745.00
2023-04-26T06:30:01.416Z,751.00
2023-04-26T06:31:01.391Z,751.00
2023-04-26T06:32:01.428Z,749.00
2023-04-26T06:33:01.588Z,757.00
2023-04-26T06:34:01.529Z,925.00
2023-04-26T06:35:01.630Z,875.00
2023-04-26T06:36:01.648Z,888.00
2023-04-26T06:37:01.754Z,882.00
2023-04-26T06:38:01.833Z,889.00
2023-04-26T06:39:01.807Z,871.00
2023-04-26T06:40:01.928Z,850.00
2023-04-26T06:41:02.399Z,840.00
2023-04-26T06:42:01.957Z,827.00
2023-04-26T06:43:02.033Z,947.00
2023-04-26T06:44:02.051Z,821.00
2023-04-26T06:45:02.273Z,794.00
2023-04-26T06:46:02.204Z,775.00
2023-04-26T06:47:02.250Z,771.00
2023-04-26T06:48:02.350Z,775.00
2023-04-26T06:49:02.363Z,782.00
2023-04-26T06:50:02.947Z,784.00
2023-04-26T06:51:02.456Z,782.00
2023-04-26T06:52:02.519Z,923.00
2023-04-26T06:53:02.629Z,907.00
2023-04-26T06:54:02.709Z,831.00
2023-04-26T06:55:03.439Z,814.00
2023-04-26T06:56:05.394Z,802.00
2023-04-26T06:57:02.752Z,789.00
2023-04-26T06:58:02.815Z,785.00
2023-04-26T06:59:02.734Z,780.00
2023-04-26T07:00:02.769Z,777.00
2023-04-26T07:01:02.755Z,784.00
2023-04-26T07:02:02.814Z,872.00
2023-04-26T07:03:02.838Z,897.00
2023-04-26T07:04:02.802Z,937.00
2023-04-26T07:05:02.849Z,915.00
2023-04-26T07:06:02.712Z,980.00
2023-04-26T07:07:02.699Z,781.00
2023-04-26T07:08:02.652Z,812.00
2023-04-26T07:09:02.757Z,940.00
2023-04-26T07:10:02.773Z,815.00
2023-04-26T07:11:02.907Z,825.00
2023-04-26T07:12:02.777Z,738.00
2023-04-26T07:13:02.738Z,760.00
2023-04-26T07:14:02.721Z,756.00
2023-04-26T07:15:02.634Z,724.00
2023-04-26T07:16:03.277Z,708.00
2023-04-26T07:17:02.631Z,704.00
2023-04-26T07:18:02.620Z,705.00
2023-04-26T07:19:02.600Z,707.00
2023-04-26T07:20:02.609Z,704.00
2023-04-26T07:21:02.582Z,701.00
2023-04-26T07:22:02.567Z,701.00
2023-04-26T07:23:02.635Z,701.00
2023-04-26T07:24:02.619Z,710.00
2023-04-26T07:25:02.592Z,712.00
2023-04-26T07:26:02.581Z,710.00
2023-04-26T07:27:02.547Z,709.00
2023-04-26T07:28:02.577Z,708.00
2023-04-26T07:29:02.526Z,711.00
2023-04-26T07:30:02.631Z,719.00
2023-04-26T07:31:02.926Z,725.00
2023-04-26T07:32:02.574Z,735.00
2023-04-26T07:33:02.747Z,755.00
2023-04-26T07:34:02.544Z,809.00
2023-04-26T07:35:02.509Z,897.00
2023-04-26T07:36:02.495Z,986.00
2023-04-26T07:37:02.530Z,962.00
2023-04-26T07:38:02.488Z,927.00
2023-04-26T07:39:02.570Z,935.00
2023-04-26T07:40:02.601Z,865.00
2023-04-26T07:41:02.628Z,853.00
2023-04-26T07:42:02.672Z,850.00
2023-04-26T07:43:02.736Z,843.00
2023-04-26T07:44:02.765Z,839.00
2023-04-26T07:45:02.797Z,830.00
2023-04-26T07:46:02.920Z,822.00
2023-04-26T07:47:02.902Z,819.00
2023-04-26T07:48:03.072Z,828.00
2023-04-26T07:49:03.005Z,836.00
2023-04-26T07:50:03.212Z,844.00
2023-04-26T07:51:03.269Z,861.00
2023-04-26T07:52:03.158Z,872.00
2023-04-26T07:53:03.227Z,886.00
2023-04-26T07:54:03.258Z,898.00
2023-04-26T07:55:03.434Z,905.00
2023-04-26T07:56:03.340Z,908.00
2023-04-26T07:57:03.379Z,911.00
2023-04-26T07:58:03.435Z,911.00
2023-04-26T07:59:03.518Z,913.00
2023-04-26T08:00:03.521Z,918.00
2023-04-26T08:01:03.601Z,925.00
2023-04-26T08:02:03.726Z,927.00
2023-04-26T08:03:03.867Z,929.00
2023-04-26T08:04:03.927Z,931.00
2023-04-26T08:05:03.946Z,933.00
2023-04-26T08:06:04.096Z,937.00
2023-04-26T08:07:03.914Z,941.00
2023-04-26T08:08:03.935Z,947.00
2023-04-26T08:09:04.043Z,950.00
2023-04-26T08:10:04.437Z,953.00
2023-04-26T08:11:04.452Z,957.00
2023-04-26T08:12:04.132Z,960.00
2023-04-26T08:13:04.189Z,966.00
2023-04-26T08:14:04.146Z,971.00
2023-04-26T08:15:04.198Z,971.00
2023-04-26T08:16:04.229Z,974.00
2023-04-26T08:17:04.361Z,974.00
2023-04-26T08:18:04.378Z,972.00
2023-04-26T08:19:04.406Z,973.00
2023-04-26T08:20:04.399Z,971.00
2023-04-26T08:21:04.468Z,970.00
2023-04-26T08:22:04.503Z,972.00
2023-04-26T08:23:04.564Z,968.00
2023-04-26T08:24:04.572Z,962.00
2023-04-26T08:25:04.827Z,958.00
2023-04-26T08:26:04.665Z,972.00
2023-04-26T08:27:04.749Z,1444.00
2023-04-26T08:28:04.807Z,1208.00
2023-04-26T08:29:04.811Z,1146.00
2023-04-26T08:30:04.799Z,1145.00
2023-04-26T08:31:04.913Z,1118.00
2023-04-26T08:32:04.824Z,1079.00
2023-04-26T08:33:04.947Z,1064.00
2023-04-26T08:34:04.871Z,1032.00
2023-04-26T08:35:04.936Z,1012.00
2023-04-26T08:36:04.950Z,1000.00
2023-04-26T08:37:04.939Z,991.00
2023-04-26T08:38:05.008Z,981.00
2023-04-26T08:39:05.103Z,970.00
2023-04-26T08:40:05.488Z,953.00
2023-04-26T08:41:05.447Z,1076.00
2023-04-26T08:42:05.158Z,1091.00
2023-04-26T08:43:05.215Z,1540.00
2023-04-26T08:44:05.475Z,1212.00
2023-04-26T08:45:05.273Z,1119.00
2023-04-26T08:46:05.392Z,1108.00
2023-04-26T08:47:05.371Z,1086.00
2023-04-26T08:48:05.449Z,1058.00
2023-04-26T08:49:05.479Z,1033.00
2023-04-26T08:50:05.514Z,1020.00
2023-04-26T08:51:07.456Z,1091.00
2023-04-26T08:52:05.626Z,1093.00
2023-04-26T08:53:05.628Z,967.00
2023-04-26T08:54:05.697Z,940.00
2023-04-26T08:55:05.711Z,923.00
2023-04-26T08:56:05.782Z,917.00
2023-04-26T08:57:05.961Z,912.00
2023-04-26T08:58:05.824Z,912.00
2023-04-26T08:59:05.916Z,912.00
2023-04-26T09:00:06.043Z,911.00
2023-04-26T09:01:06.501Z,918.00
2023-04-26T09:02:06.091Z,918.00
2023-04-26T09:03:06.371Z,915.00
2023-04-26T09:04:06.264Z,934.00
2023-04-26T09:05:06.313Z,938.00
2023-04-26T09:06:06.511Z,952.00
2023-04-26T09:07:06.446Z,954.00
2023-04-26T09:08:06.377Z,954.00
2023-04-26T09:09:06.422Z,953.00
2023-04-26T09:10:06.455Z,948.00
2023-04-26T09:11:06.944Z,942.00
2023-04-26T09:12:06.567Z,937.00
2023-04-26T09:13:06.652Z,933.00
2023-04-26T09:14:06.678Z,925.00
2023-04-26T09:15:06.778Z,919.00
2023-04-26T09:16:06.863Z,916.00
2023-04-26T09:17:06.796Z,913.00
2023-04-26T09:18:06.943Z,909.00
2023-04-26T09:19:06.906Z,904.00
2023-04-26T09:20:07.923Z,905.00
2023-04-26T09:21:07.072Z,906.00
2023-04-26T09:22:07.037Z,903.00
2023-04-26T09:23:07.052Z,902.00
2023-04-26T09:24:07.075Z,902.00
2023-04-26T09:25:07.092Z,897.00
2023-04-26T09:26:07.120Z,893.00
2023-04-26T09:27:07.174Z,892.00
2023-04-26T09:28:07.206Z,891.00
2023-04-26T09:29:07.228Z,878.00
2023-04-26T09:30:07.224Z,870.00
2023-04-26T09:31:07.552Z,872.00
2023-04-26T09:32:07.300Z,940.00
2023-04-26T09:33:07.362Z,1080.00
2023-04-26T09:34:07.412Z,1112.00
2023-04-26T09:35:07.490Z,1189.00
2023-04-26T09:36:07.965Z,1070.00
2023-04-26T09:37:07.593Z,1052.00
2023-04-26T09:38:10.957Z,1059.00
2023-04-26T09:39:08.597Z,1089.00
2023-04-26T09:40:07.569Z,1082.00
2023-04-26T09:41:08.036Z,1022.00
2023-04-26T09:42:07.558Z,1019.00
2023-04-26T09:43:07.545Z,965.00
2023-04-26T09:44:07.557Z,968.00
2023-04-26T09:45:07.647Z,981.00
2023-04-26T09:46:07.527Z,987.00
2023-04-26T09:47:07.586Z,994.00
2023-04-26T09:48:07.741Z,1006.00
2023-04-26T09:49:07.532Z,1013.00
2023-04-26T09:50:07.508Z,1005.00
2023-04-26T09:51:08.496Z,994.00
2023-04-26T09:52:07.600Z,992.00
2023-04-26T09:53:07.616Z,943.00
2023-04-26T09:54:07.644Z,912.00
2023-04-26T09:55:07.712Z,808.00
2023-04-26T09:56:07.805Z,781.00
2023-04-26T09:57:07.979Z,777.00
2023-04-26T09:58:07.849Z,798.00
2023-04-26T09:59:07.885Z,877.00
2023-04-26T10:00:07.938Z,895.00
2023-04-26T10:01:08.264Z,816.00
2023-04-26T10:02:08.138Z,768.00
2023-04-26T10:03:08.394Z,735.00
2023-04-26T10:04:08.232Z,675.00
2023-04-26T10:05:08.250Z,689.00
2023-04-26T10:06:08.424Z,759.00
2023-04-26T10:07:08.296Z,754.00
2023-04-26T10:08:08.354Z,752.00
2023-04-26T10:09:08.400Z,751.00
2023-04-26T10:10:08.513Z,738.00
2023-04-26T10:11:08.520Z,622.00
2023-04-26T10:12:08.525Z,605.00
2023-04-26T10:13:08.608Z,601.00
2023-04-26T10:14:08.628Z,600.00
2023-04-26T10:15:08.695Z,590.00
2023-04-26T10:16:08.773Z,590.00
2023-04-26T10:17:08.862Z,600.00
2023-04-26T10:18:08.894Z,599.00
2023-04-26T10:19:08.900Z,665.00
2023-04-26T10:20:08.944Z,587.00
2023-04-26T10:21:09.011Z,578.00
2023-04-26T10:22:09.051Z,569.00
2023-04-26T10:23:09.094Z,556.00
2023-04-26T10:24:09.140Z,548.00
2023-04-26T10:25:09.182Z,544.00
2023-04-26T10:26:09.286Z,543.00
2023-04-26T10:27:09.472Z,541.00
2023-04-26T10:28:09.495Z,543.00
2023-04-26T10:29:09.423Z,617.00
2023-04-26T10:30:09.479Z,620.00
2023-04-26T10:31:11.487Z,649.00
2023-04-26T10:32:09.778Z,667.00
2023-04-26T10:33:09.771Z,668.00
2023-04-26T10:34:11.894Z,655.00
2023-04-26T10:35:09.720Z,714.00
2023-04-26T10:36:10.002Z,696.00
2023-04-26T10:37:09.809Z,681.00
2023-04-26T10:38:10.510Z,678.00
2023-04-26T10:39:09.918Z,667.00
2023-04-26T10:40:09.973Z,658.00
2023-04-26T10:41:10.508Z,653.00
2023-04-26T10:42:10.136Z,652.00
2023-04-26T10:43:10.161Z,660.00
2023-04-26T10:44:10.215Z,657.00
2023-04-26T10:45:10.218Z,652.00
2023-04-26T10:46:10.375Z,653.00
2023-04-26T10:47:10.373Z,657.00
2023-04-26T10:48:10.482Z,665.00
2023-04-26T10:49:10.408Z,668.00
2023-04-26T10:50:10.481Z,675.00
2023-04-26T10:51:10.540Z,679.00
2023-04-26T10:52:10.578Z,689.00
2023-04-26T10:53:10.584Z,702.00
2023-04-26T10:54:10.673Z,707.00
2023-04-26T10:55:10.689Z,700.00
2023-04-26T10:56:10.805Z,694.00
2023-04-26T10:57:10.767Z,687.00
2023-04-26T10:58:10.837Z,686.00
2023-04-26T11:00:10.867Z,736.00
2023-04-26T11:01:11.008Z,734.00
2023-04-26T11:02:11.073Z,726.00
2023-04-26T11:03:10.876Z,730.00
2023-04-26T11:04:10.899Z,723.00
2023-04-26T11:05:10.978Z,718.00
2023-04-26T11:06:10.971Z,708.00
2023-04-26T11:07:10.895Z,689.00
2023-04-26T11:08:10.884Z,672.00
2023-04-26T11:09:10.865Z,671.00
2023-04-26T11:10:10.847Z,676.00
2023-04-26T11:11:10.812Z,675.00
2023-04-26T11:12:10.861Z,674.00
2023-04-26T11:13:10.778Z,671.00
2023-04-26T11:14:10.760Z,666.00
2023-04-26T11:15:10.882Z,662.00
2023-04-26T11:16:10.806Z,662.00
2023-04-26T11:17:10.769Z,1101.00
2023-04-26T11:18:10.886Z,1059.00
2023-04-26T11:19:10.775Z,1051.00
2023-04-26T11:20:10.767Z,1050.00
2023-04-26T11:21:11.063Z,1013.00
2023-04-26T11:22:10.730Z,979.00
2023-04-26T11:23:10.732Z,930.00
2023-04-26T11:24:10.749Z,898.00
2023-04-26T11:25:10.769Z,885.00
2023-04-26T11:26:10.754Z,884.00
2023-04-26T11:27:10.704Z,878.00
2023-04-26T11:28:10.676Z,840.00
2023-04-26T11:29:10.687Z,827.00
2023-04-26T11:30:10.661Z,824.00
2023-04-26T11:31:10.726Z,808.00
2023-04-26T11:32:10.669Z,792.00
2023-04-26T11:33:10.709Z,785.00
2023-04-26T11:34:10.696Z,774.00
2023-04-26T11:35:10.644Z,760.00
2023-04-26T11:36:11.036Z,749.00
2023-04-26T11:37:10.656Z,746.00
2023-04-26T11:38:10.644Z,742.00
2023-04-26T11:39:12.004Z,733.00
2023-04-26T11:40:10.588Z,720.00
2023-04-26T11:41:11.066Z,719.00
2023-04-26T11:42:10.597Z,717.00
2023-04-26T11:43:10.587Z,729.00
2023-04-26T11:44:10.567Z,733.00
2023-04-26T11:45:10.561Z,731.00
2023-04-26T11:46:10.682Z,720.00
2023-04-26T11:47:10.591Z,714.00
2023-04-26T11:48:10.642Z,714.00
2023-04-26T11:49:10.557Z,714.00
2023-04-26T11:50:10.522Z,715.00
2023-04-26T11:51:10.576Z,715.00
2023-04-26T11:52:10.512Z,708.00
2023-04-26T11:53:10.542Z,704.00
2023-04-26T11:54:10.493Z,695.00
2023-04-26T11:55:10.514Z,685.00
2023-04-26T11:56:10.504Z,676.00
2023-04-26T11:57:10.529Z,666.00
2023-04-26T11:58:10.465Z,664.00
2023-04-26T11:59:10.457Z,667.00
2023-04-26T12:00:10.446Z,664.00
2023-04-26T12:01:10.516Z,659.00
2023-04-26T12:02:10.513Z,665.00
2023-04-26T12:03:10.615Z,656.00
2023-04-26T12:04:10.775Z,649.00
2023-04-26T12:05:10.536Z,646.00
2023-04-26T12:06:10.409Z,643.00
2023-04-26T12:07:10.428Z,636.00
2023-04-26T12:08:10.414Z,631.00
2023-04-26T12:09:10.397Z,628.00
2023-04-26T12:10:10.418Z,628.00
2023-04-26T12:11:10.384Z,618.00
2023-04-26T12:12:10.374Z,611.00
2023-04-26T12:13:10.420Z,616.00
2023-04-26T12:14:10.478Z,617.00
2023-04-26T12:15:10.367Z,614.00
2023-04-26T12:16:22.186Z,608.00
2023-04-26T12:17:11.405Z,608.00
2023-04-26T12:18:11.067Z,604.00
2023-04-26T12:19:10.326Z,603.00
2023-04-26T12:20:10.334Z,602.00
2023-04-26T12:21:10.363Z,599.00
2023-04-26T12:22:10.375Z,599.00
2023-04-26T12:23:10.314Z,600.00
2023-04-26T12:24:10.306Z,600.00
2023-04-26T12:25:10.331Z,599.00
2023-04-26T12:26:10.322Z,609.00
2023-04-26T12:27:10.281Z,610.00
2023-04-26T12:28:10.535Z,609.00
2023-04-26T12:29:10.345Z,605.00